• Join FlightAware (Why Join?)
  • Login
  • US Flag 
02:16AM EDT


 

Airport Tracker/Info


-or-


 

Live Flight TrackerFlight Track Log ✈ CFS671 ✈ 11-Oct-2013 ✈ KLMT - KPDX

Flight Track Log - Related Links

Times and Time Zones

All times are in EDT time to prevent confusion due to time zone crossing. See the CFS671 flight status page for this flight to view local times or setup timezone preferences in your user account.

Time Position Orientation Groundspeed Altitude Reporting Facility
EDT Latitude Longitude Course Direction KTS MPH feet Rate Location/Type
07:20PM 42.2833 -121.7747 349° North 138 159 9,900  Level Seattle Center
07:21PM 42.3217 -121.7844 349° North 140 161 10,500 240 Climbing Seattle Center
07:22PM 42.3633 -121.7978 347° North 146 168 10,500  Level Seattle Center
07:23PM 42.4067 -121.8117 347° North 154 177 10,500  Level Seattle Center
07:24PM 42.4508 -121.8250 347° North 159 183 10,500  Level Seattle Center
07:25PM 42.4942 -121.8381 347° North 160 184 10,500  Level Seattle Center
07:26PM 42.5389 -121.8503 349° North 162 186 10,500  Level Seattle Center
07:27PM 42.5819 -121.8628 348° North 161 185 10,500  Level Seattle Center
07:28PM 42.6353 -121.8778 348° North 162 186 10,500  Level Seattle Center
07:29PM 42.6783 -121.8906 348° North 160 184 10,500  Level Seattle Center
07:30PM 42.7231 -121.9025 349° North 162 186 10,500  Level Seattle Center
07:31PM 42.7675 -121.9153 348° North 163 188 10,500  Level Seattle Center
07:32PM 42.8114 -121.9275 348° North 162 186 10,500  Level Seattle Center
07:33PM 42.8556 -121.9394 349° North 163 188 10,500  Level Seattle Center
07:34PM 42.9003 -121.9533 347° North 167 192 10,500  Level Seattle Center
07:35PM 42.9439 -121.9661 348° North 163 188 10,500  Level Seattle Center
07:36PM 42.9881 -121.9800 347° North 162 186 10,500  Level Seattle Center
07:37PM 43.0333 -121.9925 349° North 164 189 10,500  Level Seattle Center
07:38PM 43.0872 -122.0086 348° North 166 191 10,500  Level Seattle Center
07:39PM 43.1325 -122.0189 351° North 164 189 10,500 -60 Level Seattle Center
07:40PM 43.1781 -122.0347 346° North 169 194 10,400 -60 Descending Seattle Center
07:41PM 43.2219 -122.0458 350° North 163 188 10,400  Level Seattle Center
07:42PM 43.2661 -122.0569 350° North 161 185 10,400  Level Seattle Center
07:43PM 43.3139 -122.0711 348° North 159 183 10,400  Level Seattle Center
07:44PM 43.3581 -122.0850 347° North 161 185 10,400  Level Seattle Center
07:45PM 43.4031 -122.0969 349° North 164 189 10,400  Level Seattle Center
07:46PM 43.4469 -122.1103 348° North 163 188 10,400  Level Seattle Center
07:47PM 43.4903 -122.1242 347° North 161 185 10,400  Level Seattle Center
07:48PM 43.5356 -122.1364 349° North 163 188 10,400  Level Seattle Center
07:49PM 43.5786 -122.1492 348° North 161 185 10,500  Climbing Seattle Center
07:50PM 43.6217 -122.1631 347° North 160 184 10,500  Level Seattle Center
07:51PM 43.6669 -122.1753 349° North 163 188 10,500  Level Seattle Center
07:52PM 43.7128 -122.1861 350° North 165 190 10,500  Level Seattle Center
07:54PM 43.7572 -122.1997 348° North 165 190 10,500  Level Seattle Center
07:55PM 43.8092 -122.2147 348° North 163 188 10,500  Level Seattle Center
07:56PM 43.8556 -122.2275 349° North 167 192 10,500  Level Seattle Center
07:57PM 43.8986 -122.2408 347° North 163 188 10,500  Level Seattle Center
07:58PM 43.9425 -122.2536 348° North 161 185 10,500  Level Seattle Center
07:59PM 43.9861 -122.2664 348° North 161 185 10,500  Level Seattle Center
08:00PM 44.0294 -122.2800 347° North 160 184 10,500  Level Seattle Center
08:01PM 44.0717 -122.2931 347° North 158 182 10,500  Level Seattle Center
08:02PM 44.1236 -122.3072 349° North 159 183 10,500  Level Seattle Center
08:03PM 44.1653 -122.3203 347° North 157 181 10,500  Level Seattle Center
08:04PM 44.2083 -122.3342 347° North 156 180 10,500  Level Seattle Center
08:05PM 44.2500 -122.3461 348° North 157 181 10,500  Level Seattle Center
08:06PM 44.2908 -122.3586 348° North 152 175 10,500  Level Seattle Center
08:07PM 44.3325 -122.3722 347° North 154 177 10,500  Level Seattle Center
08:08PM 44.3764 -122.3850 348° North 157 181 10,500  Level Seattle Center
08:09PM 44.4211 -122.3983 348° North 164 189 10,500  Level Seattle Center
08:10PM 44.4653 -122.4122 347° North 163 188 10,500  Level Seattle Center
08:11PM 44.5089 -122.4247 348° North 161 185 10,500  Level Seattle Center
08:12PM 44.5617 -122.4417 347° North 162 186 10,500  Level Seattle Center
08:13PM 44.6058 -122.4550 348° North 162 186 10,500  Level Seattle Center
08:14PM 44.6372 -122.4664 346° North 159 183 10,500  Level Seattle Center
08:14PM 44.6475 -122.4672 357° North 160 184 10,500  Level Seattle Center
08:14PM 44.6653 -122.4764 340° North 157 181 10,500  Level Seattle Center
08:15PM 44.6903 -122.4811 352° North 160 184 10,500  Level Seattle Center
08:15PM 44.7097 -122.4919 338° Northwest 159 183 10,500  Level Seattle Center
08:16PM 44.7336 -122.4939 357° North 160 184 10,500  Level Seattle Center
08:16PM 44.7556 -122.5039 342° North 159 183 10,500  Level Seattle Center
08:17PM 44.7761 -122.5072 353° North 157 181 10,500  Level Seattle Center
08:17PM 44.7994 -122.5164 344° North 159 183 10,500 -300 Level Seattle Center
08:18PM 44.8206 -122.5186 356° North 163 188 10,200 -600 Descending Seattle Center
08:18PM 44.8461 -122.5219 355° North 181 208 9,900 -600 Descending Seattle Center
08:19PM 44.8689 -122.5219 360° North 173 199 9,600 -660 Descending Seattle Center
08:20PM 44.9039 -122.5292 352° North 179 206 9,200 -600 Descending Seattle Center
08:20PM 44.9181 -122.5281 North 177 204 9,000 -720 Descending Seattle Center
08:21PM 44.9525 -122.5336 353° North 179 206 8,500 -600 Descending Seattle Center
08:21PM 44.9681 -122.5319 North 180 207 8,400 -660 Descending Seattle Center
08:22PM 44.9986 -122.5364 354° North 179 206 7,900 -900 Descending Seattle Center
08:22PM 45.0269 -122.5361 360° North 178 205 7,500 -720 Descending Seattle Center
08:23PM 45.0497 -122.5431 348° North 182 209 7,200 -720 Descending Seattle Center
08:23PM 45.0772 -122.5456 356° North 180 207 6,800 -840 Descending Seattle Center
08:24PM 45.0983 -122.5478 356° North 179 206 6,400 -1,020 Descending Seattle Center
08:24PM 45.1272 -122.5506 356° North 181 208 5,800 -1,020 Descending Seattle Center
08:24PM 45.1456 -122.5561 348° North 183 211 5,500 -1,020 Descending Seattle Center
08:25PM 45.1789 -122.5569 359° North 183 211 4,800 -1,140 Descending Seattle Center
08:25PM 45.1983 -122.5592 355° North 193 222 4,400 -900 Descending Seattle Center
08:26PM 45.2317 -122.5617 357° North 189 217 3,900 -780 Descending Seattle Center
08:26PM 45.2469 -122.5642 353° North 190 219 3,700 -600 Descending Seattle Center
08:27PM 45.2825 -122.5667 357° North 186 214 3,300 -600 Descending Seattle Center
08:27PM 45.2956 -122.5689 353° North 174 200 3,100 -300 Descending Seattle Center
08:28PM 45.3283 -122.5711 357° North 173 199 3,000 -240 Descending Seattle Center
08:28PM 45.3464 -122.5728 356° North 164 189 2,900 -300 Descending Seattle Center
08:29PM 45.3742 -122.5742 358° North 168 193 2,700 -360 Descending Seattle Center
08:29PM 45.3864 -122.5778 348° North 164 189 2,600 -180 Descending Seattle Center
08:30PM 45.4356 -122.5856 354° North 161 185 2,500 -300 Descending Seattle Center
08:31PM 45.4808 -122.5947 352° North 166 191 2,100 -540 Descending Seattle Center
08:32PM 45.5189 -122.6033 351° North 166 191 1,600 -720 Descending Seattle Center
08:32PM 45.5219 -122.6058 330° Northwest 168 193 1,500 -600 Descending Seattle Center
08:33PM 45.5617 -122.6178 348° North 164 189 1,000 -600 Descending Seattle Center
08:33PM 45.5639 -122.6194 332° Northwest 139 160 900 -240 Descending Seattle Center
08:34PM 45.6031 -122.6314 348° North 163 188 800 -120 Descending Seattle Center
08:36PM 45.5887 -122.5969 180° South  Level Estimated